Glenburn, North Dakota
Current Conditions -  °F | °C
As of 4:23 AM on Sunday 25 Jan 2015 (Local Time) from KMIB Reporting Station
Freezing Rain Freezing Rain  
Wind Chill: 18°   Ceiling: 200
Heat Index: 25°   Visibility: 4mi
Dew Point: 25°   Wind: 6mph
Humidity: 100%   Direction: 360°N
Pressure: 29.94"   Gusts: NA
Location:  48.51°N, 101.22°W
Report Text: KMIB 251023Z AUTO 36005KT 4SM R29/4500FT -FZRA BR BKN002 OVC006 M04/M04 A2994 RMK AO2 RAB1022FZDZE1022 CIG 002V004 $
Loading
Personal Weather Stations






























Interactive Weather Map New forecast layout! Learn more

10-Day Weather Forecast

Advertisements
Track Severe Weather on mobile